sensor_id;sensor_type;location;lat;lon;timestamp;temperature;humidity
18101;DHT22;9177;49.156;8.142;2023-09-07T00:01:31;25.60;99.90
18101;DHT22;9177;49.156;8.142;2023-09-07T00:03:57;25.60;99.90
18101;DHT22;9177;49.156;8.142;2023-09-07T00:06:24;25.60;99.90
18101;DHT22;9177;49.156;8.142;2023-09-07T00:08:53;25.60;99.90
18101;DHT22;9177;49.156;8.142;2023-09-07T00:11:21;25.60;99.90
18101;DHT22;9177;49.156;8.142;2023-09-07T00:13:48;25.60;99.90
18101;DHT22;9177;49.156;8.142;2023-09-07T00:16:16;25.60;99.90
18101;DHT22;9177;49.156;8.142;2023-09-07T00:18:43;25.60;99.90
18101;DHT22;9177;49.156;8.142;2023-09-07T00:21:10;25.60;99.90
18101;DHT22;9177;49.156;8.142;2023-09-07T00:23:37;25.60;99.90
18101;DHT22;9177;49.156;8.142;2023-09-07T00:26:05;25.60;99.90
18101;DHT22;9177;49.156;8.142;2023-09-07T00:28:32;25.50;99.90
18101;DHT22;9177;49.156;8.142;2023-09-07T00:30:58;25.60;99.90
18101;DHT22;9177;49.156;8.142;2023-09-07T00:33:25;25.50;99.90
18101;DHT22;9177;49.156;8.142;2023-09-07T00:35:52;25.50;99.90
18101;DHT22;9177;49.156;8.142;2023-09-07T00:38:19;25.60;99.90
18101;DHT22;9177;49.156;8.142;2023-09-07T00:40:46;25.50;99.90
18101;DHT22;9177;49.156;8.142;2023-09-07T00:43:14;25.50;99.90
18101;DHT22;9177;49.156;8.142;2023-09-07T00:45:41;25.60;99.90
18101;DHT22;9177;49.156;8.142;2023-09-07T00:48:08;25.50;99.90
18101;DHT22;9177;49.156;8.142;2023-09-07T00:50:35;25.50;99.90
18101;DHT22;9177;49.156;8.142;2023-09-07T00:53:03;25.50;99.90
18101;DHT22;9177;49.156;8.142;2023-09-07T00:55:33;25.50;99.90
18101;DHT22;9177;49.156;8.142;2023-09-07T00:58:00;25.50;99.90
18101;DHT22;9177;49.156;8.142;2023-09-07T01:00:30;25.50;99.90
18101;DHT22;9177;49.156;8.142;2023-09-07T01:02:57;25.50;99.90
18101;DHT22;9177;49.156;8.142;2023-09-07T01:05:30;25.50;99.90
18101;DHT22;9177;49.156;8.142;2023-09-07T01:08:03;25.50;99.90
18101;DHT22;9177;49.156;8.142;2023-09-07T01:10:32;25.50;99.90
18101;DHT22;9177;49.156;8.142;2023-09-07T01:12:59;25.50;99.90
18101;DHT22;9177;49.156;8.142;2023-09-07T01:15:26;25.50;99.90
18101;DHT22;9177;49.156;8.142;2023-09-07T01:17:54;25.50;99.90
18101;DHT22;9177;49.156;8.142;2023-09-07T01:20:23;25.50;99.90
18101;DHT22;9177;49.156;8.142;2023-09-07T01:22:53;25.50;99.90
18101;DHT22;9177;49.156;8.142;2023-09-07T01:25:21;25.40;99.90
18101;DHT22;9177;49.156;8.142;2023-09-07T01:27:49;25.50;99.90
18101;DHT22;9177;49.156;8.142;2023-09-07T01:30:17;25.40;99.90
18101;DHT22;9177;49.156;8.142;2023-09-07T01:32:45;25.50;99.90
18101;DHT22;9177;49.156;8.142;2023-09-07T01:35:13;25.40;99.90
18101;DHT22;9177;49.156;8.142;2023-09-07T01:37:42;25.50;99.90
18101;DHT22;9177;49.156;8.142;2023-09-07T01:40:11;25.50;99.90
18101;DHT22;9177;49.156;8.142;2023-09-07T01:42:37;25.50;99.90
18101;DHT22;9177;49.156;8.142;2023-09-07T01:45:05;25.40;99.90
18101;DHT22;9177;49.156;8.142;2023-09-07T01:47:32;25.40;99.90
18101;DHT22;9177;49.156;8.142;2023-09-07T01:49:59;25.40;99.90
18101;DHT22;9177;49.156;8.142;2023-09-07T01:52:26;25.40;99.90
18101;DHT22;9177;49.156;8.142;2023-09-07T01:54:52;25.40;99.90
18101;DHT22;9177;49.156;8.142;2023-09-07T01:57:21;25.40;99.90
18101;DHT22;9177;49.156;8.142;2023-09-07T01:59:48;25.40;99.90
18101;DHT22;9177;49.156;8.142;2023-09-07T02:02:15;25.40;99.90
18101;DHT22;9177;49.156;8.142;2023-09-07T02:04:41;25.40;99.90
18101;DHT22;9177;49.156;8.142;2023-09-07T02:07:11;25.40;99.90
18101;DHT22;9177;49.156;8.142;2023-09-07T02:09:39;25.40;99.90
18101;DHT22;9177;49.156;8.142;2023-09-07T02:12:06;25.40;99.90
18101;DHT22;9177;49.156;8.142;2023-09-07T02:14:34;25.40;99.90
18101;DHT22;9177;49.156;8.142;2023-09-07T02:17:04;25.40;99.90
18101;DHT22;9177;49.156;8.142;2023-09-07T02:19:31;25.40;99.90
18101;DHT22;9177;49.156;8.142;2023-09-07T02:21:58;25.40;99.90
18101;DHT22;9177;49.156;8.142;2023-09-07T02:24:25;25.40;99.90
18101;DHT22;9177;49.156;8.142;2023-09-07T02:26:52;25.40;99.90
18101;DHT22;9177;49.156;8.142;2023-09-07T02:29:18;25.40;99.90
18101;DHT22;9177;49.156;8.142;2023-09-07T02:31:47;25.40;99.90
18101;DHT22;9177;49.156;8.142;2023-09-07T02:34:14;25.40;99.90
18101;DHT22;9177;49.156;8.142;2023-09-07T02:36:40;25.40;99.90
18101;DHT22;9177;49.156;8.142;2023-09-07T02:39:07;25.40;99.90
18101;DHT22;9177;49.156;8.142;2023-09-07T02:41:34;25.40;99.90
18101;DHT22;9177;49.156;8.142;2023-09-07T02:44:01;25.40;99.90
18101;DHT22;9177;49.156;8.142;2023-09-07T02:46:28;25.40;99.90
18101;DHT22;9177;49.156;8.142;2023-09-07T02:48:57;25.40;99.90
18101;DHT22;9177;49.156;8.142;2023-09-07T02:51:24;25.40;99.90
18101;DHT22;9177;49.156;8.142;2023-09-07T02:53:51;25.40;99.90
18101;DHT22;9177;49.156;8.142;2023-09-07T02:56:18;25.40;99.90
18101;DHT22;9177;49.156;8.142;2023-09-07T02:58:45;25.30;99.90
18101;DHT22;9177;49.156;8.142;2023-09-07T03:01:12;25.30;99.90
18101;DHT22;9177;49.156;8.142;2023-09-07T03:03:39;25.40;99.90
18101;DHT22;9177;49.156;8.142;2023-09-07T03:06:10;25.40;99.90
18101;DHT22;9177;49.156;8.142;2023-09-07T03:08:38;25.40;99.90
18101;DHT22;9177;49.156;8.142;2023-09-07T03:11:06;25.40;99.90
18101;DHT22;9177;49.156;8.142;2023-09-07T03:13:34;25.40;99.90
18101;DHT22;9177;49.156;8.142;2023-09-07T03:16:01;25.30;99.90
18101;DHT22;9177;49.156;8.142;2023-09-07T03:18:28;25.30;99.90
18101;DHT22;9177;49.156;8.142;2023-09-07T03:20:58;25.40;99.90
18101;DHT22;9177;49.156;8.142;2023-09-07T03:23:27;25.30;99.90
18101;DHT22;9177;49.156;8.142;2023-09-07T03:25:53;25.30;99.90
18101;DHT22;9177;49.156;8.142;2023-09-07T03:28:20;25.40;99.90
18101;DHT22;9177;49.156;8.142;2023-09-07T03:30:47;25.40;99.90
18101;DHT22;9177;49.156;8.142;2023-09-07T03:33:14;25.30;99.90
18101;DHT22;9177;49.156;8.142;2023-09-07T03:35:41;25.30;99.90
18101;DHT22;9177;49.156;8.142;2023-09-07T03:38:11;25.40;99.90
18101;DHT22;9177;49.156;8.142;2023-09-07T03:40:39;25.30;99.90
18101;DHT22;9177;49.156;8.142;2023-09-07T03:43:06;25.30;99.90
18101;DHT22;9177;49.156;8.142;2023-09-07T03:45:33;25.30;99.90
18101;DHT22;9177;49.156;8.142;2023-09-07T03:47:59;25.30;99.90
18101;DHT22;9177;49.156;8.142;2023-09-07T03:50:27;25.30;99.90
18101;DHT22;9177;49.156;8.142;2023-09-07T03:52:54;25.30;99.90
18101;DHT22;9177;49.156;8.142;2023-09-07T03:55:21;25.30;99.90
18101;DHT22;9177;49.156;8.142;2023-09-07T03:57:49;25.30;99.90
18101;DHT22;9177;49.156;8.142;2023-09-07T04:00:17;25.30;99.90
18101;DHT22;9177;49.156;8.142;2023-09-07T04:02:44;25.30;99.90
18101;DHT22;9177;49.156;8.142;2023-09-07T04:05:11;25.30;99.90
18101;DHT22;9177;49.156;8.142;2023-09-07T04:07:38;25.30;99.90
18101;DHT22;9177;49.156;8.142;2023-09-07T04:10:05;25.30;99.90
18101;DHT22;9177;49.156;8.142;2023-09-07T04:12:32;25.30;99.90
18101;DHT22;9177;49.156;8.142;2023-09-07T04:15:01;25.30;99.90
18101;DHT22;9177;49.156;8.142;2023-09-07T04:17:29;25.30;99.90
18101;DHT22;9177;49.156;8.142;2023-09-07T04:19:56;25.30;99.90
18101;DHT22;9177;49.156;8.142;2023-09-07T04:22:22;25.30;99.90
18101;DHT22;9177;49.156;8.142;2023-09-07T04:24:49;25.30;99.90
18101;DHT22;9177;49.156;8.142;2023-09-07T04:27:16;25.30;99.90
18101;DHT22;9177;49.156;8.142;2023-09-07T04:29:43;25.30;99.90
18101;DHT22;9177;49.156;8.142;2023-09-07T04:32:11;25.30;99.90
18101;DHT22;9177;49.156;8.142;2023-09-07T04:34:38;25.30;99.90
18101;DHT22;9177;49.156;8.142;2023-09-07T04:37:05;25.20;99.90
18101;DHT22;9177;49.156;8.142;2023-09-07T04:39:32;25.30;99.90
18101;DHT22;9177;49.156;8.142;2023-09-07T04:41:59;25.20;99.90
18101;DHT22;9177;49.156;8.142;2023-09-07T04:44:27;25.20;99.90
18101;DHT22;9177;49.156;8.142;2023-09-07T04:46:55;25.30;99.90
18101;DHT22;9177;49.156;8.142;2023-09-07T04:49:23;25.20;99.90
18101;DHT22;9177;49.156;8.142;2023-09-07T04:51:53;25.20;99.90
18101;DHT22;9177;49.156;8.142;2023-09-07T04:54:20;25.30;99.90
18101;DHT22;9177;49.156;8.142;2023-09-07T04:56:47;25.20;99.90
18101;DHT22;9177;49.156;8.142;2023-09-07T04:59:14;25.20;99.90
18101;DHT22;9177;49.156;8.142;2023-09-07T05:01:41;25.20;99.90
18101;DHT22;9177;49.156;8.142;2023-09-07T05:04:08;25.20;99.90
18101;DHT22;9177;49.156;8.142;2023-09-07T05:06:36;25.20;99.90
18101;DHT22;9177;49.156;8.142;2023-09-07T05:09:07;25.20;99.90
18101;DHT22;9177;49.156;8.142;2023-09-07T05:11:34;25.20;99.90
18101;DHT22;9177;49.156;8.142;2023-09-07T05:14:01;25.20;99.90
18101;DHT22;9177;49.156;8.142;2023-09-07T05:16:31;25.20;99.90
18101;DHT22;9177;49.156;8.142;2023-09-07T05:18:58;25.20;99.90
18101;DHT22;9177;49.156;8.142;2023-09-07T05:21:24;25.20;99.90
18101;DHT22;9177;49.156;8.142;2023-09-07T05:23:53;25.20;99.90
18101;DHT22;9177;49.156;8.142;2023-09-07T05:26:23;25.20;99.90
18101;DHT22;9177;49.156;8.142;2023-09-07T05:28:50;25.20;99.90
18101;DHT22;9177;49.156;8.142;2023-09-07T05:31:17;25.20;99.90
18101;DHT22;9177;49.156;8.142;2023-09-07T05:33:44;25.20;99.90
18101;DHT22;9177;49.156;8.142;2023-09-07T05:36:11;25.20;99.90
18101;DHT22;9177;49.156;8.142;2023-09-07T05:38:38;25.20;99.90
18101;DHT22;9177;49.156;8.142;2023-09-07T05:41:07;25.20;99.90
18101;DHT22;9177;49.156;8.142;2023-09-07T05:43:34;25.20;99.90
18101;DHT22;9177;49.156;8.142;2023-09-07T05:46:00;25.20;99.90
18101;DHT22;9177;49.156;8.142;2023-09-07T05:48:28;25.20;99.90
18101;DHT22;9177;49.156;8.142;2023-09-07T05:50:55;25.20;99.90
18101;DHT22;9177;49.156;8.142;2023-09-07T05:53:22;25.20;99.90
18101;DHT22;9177;49.156;8.142;2023-09-07T05:55:50;25.20;99.90
18101;DHT22;9177;49.156;8.142;2023-09-07T05:58:18;25.20;99.90
18101;DHT22;9177;49.156;8.142;2023-09-07T06:00:45;25.20;99.90
18101;DHT22;9177;49.156;8.142;2023-09-07T06:03:13;25.20;99.90
18101;DHT22;9177;49.156;8.142;2023-09-07T06:05:40;25.20;99.90
18101;DHT22;9177;49.156;8.142;2023-09-07T06:08:07;25.20;99.90
18101;DHT22;9177;49.156;8.142;2023-09-07T06:10:34;25.20;99.90
18101;DHT22;9177;49.156;8.142;2023-09-07T06:13:01;25.20;99.90
18101;DHT22;9177;49.156;8.142;2023-09-07T06:15:30;25.20;99.90
18101;DHT22;9177;49.156;8.142;2023-09-07T06:17:57;25.20;99.90
18101;DHT22;9177;49.156;8.142;2023-09-07T06:20:24;25.20;99.90
18101;DHT22;9177;49.156;8.142;2023-09-07T06:22:51;25.20;99.90
18101;DHT22;9177;49.156;8.142;2023-09-07T06:25:18;25.20;99.90
18101;DHT22;9177;49.156;8.142;2023-09-07T06:27:45;25.20;99.90
18101;DHT22;9177;49.156;8.142;2023-09-07T06:30:12;25.20;99.90
18101;DHT22;9177;49.156;8.142;2023-09-07T06:32:41;25.20;99.90
18101;DHT22;9177;49.156;8.142;2023-09-07T06:35:08;25.20;99.90
18101;DHT22;9177;49.156;8.142;2023-09-07T06:37:35;25.20;99.90
18101;DHT22;9177;49.156;8.142;2023-09-07T06:40:10;25.20;99.90
18101;DHT22;9177;49.156;8.142;2023-09-07T06:42:37;25.20;99.90
18101;DHT22;9177;49.156;8.142;2023-09-07T06:45:05;25.20;99.90
18101;DHT22;9177;49.156;8.142;2023-09-07T06:47:33;25.20;99.90
18101;DHT22;9177;49.156;8.142;2023-09-07T06:50:02;25.20;99.90
18101;DHT22;9177;49.156;8.142;2023-09-07T06:52:29;25.20;99.90
18101;DHT22;9177;49.156;8.142;2023-09-07T06:54:58;25.30;99.90
18101;DHT22;9177;49.156;8.142;2023-09-07T06:57:25;25.20;99.90
18101;DHT22;9177;49.156;8.142;2023-09-07T06:59:52;25.30;99.90
18101;DHT22;9177;49.156;8.142;2023-09-07T07:02:19;25.20;99.90
18101;DHT22;9177;49.156;8.142;2023-09-07T07:04:46;25.20;99.90
18101;DHT22;9177;49.156;8.142;2023-09-07T07:07:15;25.20;99.90
18101;DHT22;9177;49.156;8.142;2023-09-07T07:09:42;25.20;99.90
18101;DHT22;9177;49.156;8.142;2023-09-07T07:12:09;25.30;99.90
18101;DHT22;9177;49.156;8.142;2023-09-07T07:14:36;25.30;99.90
18101;DHT22;9177;49.156;8.142;2023-09-07T07:17:03;25.30;99.90
18101;DHT22;9177;49.156;8.142;2023-09-07T07:19:30;25.40;99.90
18101;DHT22;9177;49.156;8.142;2023-09-07T07:21:57;25.40;99.90
18101;DHT22;9177;49.156;8.142;2023-09-07T07:24:26;25.40;99.90
18101;DHT22;9177;49.156;8.142;2023-09-07T07:26:53;25.40;99.90
18101;DHT22;9177;49.156;8.142;2023-09-07T07:29:20;25.40;99.90
18101;DHT22;9177;49.156;8.142;2023-09-07T07:31:47;25.50;99.90
18101;DHT22;9177;49.156;8.142;2023-09-07T07:34:15;25.50;99.90
18101;DHT22;9177;49.156;8.142;2023-09-07T07:36:42;25.60;99.90
18101;DHT22;9177;49.156;8.142;2023-09-07T07:39:09;25.60;99.90
18101;DHT22;9177;49.156;8.142;2023-09-07T07:41:37;25.70;99.90
18101;DHT22;9177;49.156;8.142;2023-09-07T07:44:04;25.70;99.90
18101;DHT22;9177;49.156;8.142;2023-09-07T07:46:31;25.70;99.90
18101;DHT22;9177;49.156;8.142;2023-09-07T07:48:59;25.70;99.90
18101;DHT22;9177;49.156;8.142;2023-09-07T07:51:26;25.70;99.90
18101;DHT22;9177;49.156;8.142;2023-09-07T07:53:54;25.80;99.90
18101;DHT22;9177;49.156;8.142;2023-09-07T07:56:24;25.80;99.90
18101;DHT22;9177;49.156;8.142;2023-09-07T07:58:52;25.80;99.90
18101;DHT22;9177;49.156;8.142;2023-09-07T08:01:20;25.80;99.90
18101;DHT22;9177;49.156;8.142;2023-09-07T08:03:47;25.80;99.90
18101;DHT22;9177;49.156;8.142;2023-09-07T08:06:14;25.90;99.90
18101;DHT22;9177;49.156;8.142;2023-09-07T08:08:41;25.90;99.90
18101;DHT22;9177;49.156;8.142;2023-09-07T08:11:08;25.90;99.90
18101;DHT22;9177;49.156;8.142;2023-09-07T08:13:35;25.90;99.90
18101;DHT22;9177;49.156;8.142;2023-09-07T08:16:05;26.00;99.90
18101;DHT22;9177;49.156;8.142;2023-09-07T08:18:33;26.00;99.90
18101;DHT22;9177;49.156;8.142;2023-09-07T08:21:00;26.00;99.90
18101;DHT22;9177;49.156;8.142;2023-09-07T08:23:28;26.00;99.90
18101;DHT22;9177;49.156;8.142;2023-09-07T08:25:55;26.00;99.90
18101;DHT22;9177;49.156;8.142;2023-09-07T08:28:22;26.00;99.90
18101;DHT22;9177;49.156;8.142;2023-09-07T08:30:51;26.00;99.90
18101;DHT22;9177;49.156;8.142;2023-09-07T08:33:25;26.00;99.90
18101;DHT22;9177;49.156;8.142;2023-09-07T08:35:55;26.00;99.90
18101;DHT22;9177;49.156;8.142;2023-09-07T08:38:22;26.00;99.90
18101;DHT22;9177;49.156;8.142;2023-09-07T08:40:53;26.00;99.90
18101;DHT22;9177;49.156;8.142;2023-09-07T08:43:21;26.10;99.90
18101;DHT22;9177;49.156;8.142;2023-09-07T08:45:53;26.00;99.90
18101;DHT22;9177;49.156;8.142;2023-09-07T08:48:27;26.10;99.90
18101;DHT22;9177;49.156;8.142;2023-09-07T08:50:56;26.10;99.90
18101;DHT22;9177;49.156;8.142;2023-09-07T08:53:24;26.10;99.90
18101;DHT22;9177;49.156;8.142;2023-09-07T08:55:51;26.10;99.90
18101;DHT22;9177;49.156;8.142;2023-09-07T08:58:19;26.20;99.90
18101;DHT22;9177;49.156;8.142;2023-09-07T09:00:46;26.20;99.90
18101;DHT22;9177;49.156;8.142;2023-09-07T09:03:15;26.20;99.90
18101;DHT22;9177;49.156;8.142;2023-09-07T09:05:47;26.20;99.90
18101;DHT22;9177;49.156;8.142;2023-09-07T09:08:15;26.10;99.90
18101;DHT22;9177;49.156;8.142;2023-09-07T09:10:46;26.20;99.90
18101;DHT22;9177;49.156;8.142;2023-09-07T09:13:13;26.20;99.90
18101;DHT22;9177;49.156;8.142;2023-09-07T09:15:40;26.20;99.90
18101;DHT22;9177;49.156;8.142;2023-09-07T09:18:11;26.20;99.90
18101;DHT22;9177;49.156;8.142;2023-09-07T09:20:39;26.20;99.90
18101;DHT22;9177;49.156;8.142;2023-09-07T09:23:08;26.20;99.90
18101;DHT22;9177;49.156;8.142;2023-09-07T09:25:35;26.20;99.90
18101;DHT22;9177;49.156;8.142;2023-09-07T09:28:02;26.20;99.90
18101;DHT22;9177;49.156;8.142;2023-09-07T09:30:30;26.30;99.90
18101;DHT22;9177;49.156;8.142;2023-09-07T09:32:58;26.20;99.90
18101;DHT22;9177;49.156;8.142;2023-09-07T09:35:26;26.30;99.90
18101;DHT22;9177;49.156;8.142;2023-09-07T09:37:53;26.30;99.90
18101;DHT22;9177;49.156;8.142;2023-09-07T09:40:22;26.30;99.90
18101;DHT22;9177;49.156;8.142;2023-09-07T09:42:50;26.30;99.90
18101;DHT22;9177;49.156;8.142;2023-09-07T09:45:19;26.30;99.90
18101;DHT22;9177;49.156;8.142;2023-09-07T09:47:47;26.30;99.90
18101;DHT22;9177;49.156;8.142;2023-09-07T09:50:18;26.30;99.90
18101;DHT22;9177;49.156;8.142;2023-09-07T09:52:45;26.30;99.90
18101;DHT22;9177;49.156;8.142;2023-09-07T09:55:13;26.30;99.90
18101;DHT22;9177;49.156;8.142;2023-09-07T09:57:42;26.30;99.90
18101;DHT22;9177;49.156;8.142;2023-09-07T10:00:10;26.30;99.90
18101;DHT22;9177;49.156;8.142;2023-09-07T10:02:55;26.30;99.90
18101;DHT22;9177;49.156;8.142;2023-09-07T10:05:25;26.30;99.90
18101;DHT22;9177;49.156;8.142;2023-09-07T10:07:52;26.30;99.90
18101;DHT22;9177;49.156;8.142;2023-09-07T10:10:20;26.30;99.90
18101;DHT22;9177;49.156;8.142;2023-09-07T10:12:53;26.30;99.90
18101;DHT22;9177;49.156;8.142;2023-09-07T10:15:24;26.30;99.90
18101;DHT22;9177;49.156;8.142;2023-09-07T10:18:05;26.40;99.90
18101;DHT22;9177;49.156;8.142;2023-09-07T10:20:49;26.40;99.90
18101;DHT22;9177;49.156;8.142;2023-09-07T10:23:16;26.40;99.90
18101;DHT22;9177;49.156;8.142;2023-09-07T10:25:47;26.40;99.90
18101;DHT22;9177;49.156;8.142;2023-09-07T10:28:20;26.40;99.90
18101;DHT22;9177;49.156;8.142;2023-09-07T10:30:58;26.40;99.90
18101;DHT22;9177;49.156;8.142;2023-09-07T10:33:25;26.40;99.90
18101;DHT22;9177;49.156;8.142;2023-09-07T10:35:55;26.40;99.90
18101;DHT22;9177;49.156;8.142;2023-09-07T10:38:23;26.50;99.90
18101;DHT22;9177;49.156;8.142;2023-09-07T10:40:55;26.50;99.90
18101;DHT22;9177;49.156;8.142;2023-09-07T10:43:25;26.40;99.90
18101;DHT22;9177;49.156;8.142;2023-09-07T10:45:53;26.50;99.90
18101;DHT22;9177;49.156;8.142;2023-09-07T10:48:20;26.50;99.90
18101;DHT22;9177;49.156;8.142;2023-09-07T10:50:47;26.50;99.90
18101;DHT22;9177;49.156;8.142;2023-09-07T10:53:25;26.60;99.90
18101;DHT22;9177;49.156;8.142;2023-09-07T10:55:53;26.60;99.90
18101;DHT22;9177;49.156;8.142;2023-09-07T10:58:31;26.60;99.90
18101;DHT22;9177;49.156;8.142;2023-09-07T11:00:59;26.60;99.90
18101;DHT22;9177;49.156;8.142;2023-09-07T11:03:27;26.60;99.90
18101;DHT22;9177;49.156;8.142;2023-09-07T11:05:56;26.70;99.90
18101;DHT22;9177;49.156;8.142;2023-09-07T11:08:24;26.70;99.90
18101;DHT22;9177;49.156;8.142;2023-09-07T11:10:52;26.70;99.90
18101;DHT22;9177;49.156;8.142;2023-09-07T11:13:19;26.70;99.90
18101;DHT22;9177;49.156;8.142;2023-09-07T11:15:48;26.70;99.90
18101;DHT22;9177;49.156;8.142;2023-09-07T11:18:19;26.70;99.90
18101;DHT22;9177;49.156;8.142;2023-09-07T11:20:48;26.70;99.90
18101;DHT22;9177;49.156;8.142;2023-09-07T11:23:16;26.70;99.90
18101;DHT22;9177;49.156;8.142;2023-09-07T11:25:43;26.70;99.90
18101;DHT22;9177;49.156;8.142;2023-09-07T11:28:10;26.70;99.90
18101;DHT22;9177;49.156;8.142;2023-09-07T11:30:51;26.80;99.90
18101;DHT22;9177;49.156;8.142;2023-09-07T11:33:20;26.80;99.90
18101;DHT22;9177;49.156;8.142;2023-09-07T11:35:48;26.80;99.90
18101;DHT22;9177;49.156;8.142;2023-09-07T11:38:16;26.80;99.90
18101;DHT22;9177;49.156;8.142;2023-09-07T11:40:44;26.80;99.90
18101;DHT22;9177;49.156;8.142;2023-09-07T11:43:12;26.90;99.90
18101;DHT22;9177;49.156;8.142;2023-09-07T11:45:39;26.90;99.90
18101;DHT22;9177;49.156;8.142;2023-09-07T11:48:08;26.90;99.90
18101;DHT22;9177;49.156;8.142;2023-09-07T11:50:38;27.00;99.90
18101;DHT22;9177;49.156;8.142;2023-09-07T11:53:06;27.00;99.90
18101;DHT22;9177;49.156;8.142;2023-09-07T11:55:33;27.10;99.90
18101;DHT22;9177;49.156;8.142;2023-09-07T11:58:01;27.10;99.80
18101;DHT22;9177;49.156;8.142;2023-09-07T12:00:28;27.20;99.80
18101;DHT22;9177;49.156;8.142;2023-09-07T12:02:57;27.20;99.70
18101;DHT22;9177;49.156;8.142;2023-09-07T12:05:30;27.30;99.70
18101;DHT22;9177;49.156;8.142;2023-09-07T12:07:57;27.30;99.50
18101;DHT22;9177;49.156;8.142;2023-09-07T12:10:24;27.30;99.50
18101;DHT22;9177;49.156;8.142;2023-09-07T12:12:51;27.40;99.40
18101;DHT22;9177;49.156;8.142;2023-09-07T12:15:18;27.40;99.30
18101;DHT22;9177;49.156;8.142;2023-09-07T12:17:45;27.40;99.30
18101;DHT22;9177;49.156;8.142;2023-09-07T12:20:12;27.40;99.30
18101;DHT22;9177;49.156;8.142;2023-09-07T12:22:41;27.50;99.30
18101;DHT22;9177;49.156;8.142;2023-09-07T12:25:08;27.50;99.30
18101;DHT22;9177;49.156;8.142;2023-09-07T12:27:36;27.50;99.20
18101;DHT22;9177;49.156;8.142;2023-09-07T12:30:04;27.50;99.20
18101;DHT22;9177;49.156;8.142;2023-09-07T12:32:34;27.60;99.10
18101;DHT22;9177;49.156;8.142;2023-09-07T12:35:01;27.60;99.10
18101;DHT22;9177;49.156;8.142;2023-09-07T12:37:28;27.60;99.10
18101;DHT22;9177;49.156;8.142;2023-09-07T12:39:56;27.60;99.20
18101;DHT22;9177;49.156;8.142;2023-09-07T12:42:23;27.60;99.10
18101;DHT22;9177;49.156;8.142;2023-09-07T12:44:50;27.60;99.00
18101;DHT22;9177;49.156;8.142;2023-09-07T12:47:16;27.70;99.00
18101;DHT22;9177;49.156;8.142;2023-09-07T12:49:43;27.70;99.00
18101;DHT22;9177;49.156;8.142;2023-09-07T12:52:10;27.70;99.00
18101;DHT22;9177;49.156;8.142;2023-09-07T12:54:38;27.70;98.80
18101;DHT22;9177;49.156;8.142;2023-09-07T12:57:06;27.80;98.80
18101;DHT22;9177;49.156;8.142;2023-09-07T12:59:33;27.80;99.10
18101;DHT22;9177;49.156;8.142;2023-09-07T13:02:00;27.80;98.70
18101;DHT22;9177;49.156;8.142;2023-09-07T13:04:27;27.80;98.70
18101;DHT22;9177;49.156;8.142;2023-09-07T13:06:53;27.90;98.70
18101;DHT22;9177;49.156;8.142;2023-09-07T13:09:20;27.90;98.70
18101;DHT22;9177;49.156;8.142;2023-09-07T13:11:47;27.90;98.60
18101;DHT22;9177;49.156;8.142;2023-09-07T13:14:15;28.00;98.60
18101;DHT22;9177;49.156;8.142;2023-09-07T13:16:42;28.00;98.50
18101;DHT22;9177;49.156;8.142;2023-09-07T13:19:10;28.00;98.50
18101;DHT22;9177;49.156;8.142;2023-09-07T13:21:36;28.10;98.50
18101;DHT22;9177;49.156;8.142;2023-09-07T13:24:04;28.00;98.50
18101;DHT22;9177;49.156;8.142;2023-09-07T13:26:31;28.10;98.50
18101;DHT22;9177;49.156;8.142;2023-09-07T13:28:58;28.10;98.50
18101;DHT22;9177;49.156;8.142;2023-09-07T13:31:26;28.10;98.50
18101;DHT22;9177;49.156;8.142;2023-09-07T13:33:53;28.10;98.40
18101;DHT22;9177;49.156;8.142;2023-09-07T13:36:20;28.10;98.40
18101;DHT22;9177;49.156;8.142;2023-09-07T13:38:46;28.10;98.30
18101;DHT22;9177;49.156;8.142;2023-09-07T13:41:13;28.20;98.30
18101;DHT22;9177;49.156;8.142;2023-09-07T13:43:40;28.20;98.30
18101;DHT22;9177;49.156;8.142;2023-09-07T13:46:07;28.20;98.30
18101;DHT22;9177;49.156;8.142;2023-09-07T13:48:36;28.20;98.30
18101;DHT22;9177;49.156;8.142;2023-09-07T13:51:02;28.20;98.20
18101;DHT22;9177;49.156;8.142;2023-09-07T13:53:29;28.30;98.20
18101;DHT22;9177;49.156;8.142;2023-09-07T13:55:56;28.30;98.20
18101;DHT22;9177;49.156;8.142;2023-09-07T13:58:23;28.30;98.20
18101;DHT22;9177;49.156;8.142;2023-09-07T14:00:50;28.30;98.20
18101;DHT22;9177;49.156;8.142;2023-09-07T14:03:17;28.30;98.20
18101;DHT22;9177;49.156;8.142;2023-09-07T14:05:45;28.30;98.20
18101;DHT22;9177;49.156;8.142;2023-09-07T14:08:12;28.30;98.20
18101;DHT22;9177;49.156;8.142;2023-09-07T14:10:39;28.30;98.20
18101;DHT22;9177;49.156;8.142;2023-09-07T14:13:06;28.30;98.20
18101;DHT22;9177;49.156;8.142;2023-09-07T14:15:33;28.30;98.20
18101;DHT22;9177;49.156;8.142;2023-09-07T14:18:00;28.30;98.20
18101;DHT22;9177;49.156;8.142;2023-09-07T14:20:28;28.40;98.20
18101;DHT22;9177;49.156;8.142;2023-09-07T14:22:56;28.40;98.10
18101;DHT22;9177;49.156;8.142;2023-09-07T14:25:24;28.40;98.10
18101;DHT22;9177;49.156;8.142;2023-09-07T14:27:50;28.50;98.00
18101;DHT22;9177;49.156;8.142;2023-09-07T14:30:18;28.50;98.10
18101;DHT22;9177;49.156;8.142;2023-09-07T14:32:45;28.60;98.40
18101;DHT22;9177;49.156;8.142;2023-09-07T14:35:12;28.70;98.40
18101;DHT22;9177;49.156;8.142;2023-09-07T14:37:39;28.90;98.30
18101;DHT22;9177;49.156;8.142;2023-09-07T14:40:08;28.80;98.90
18101;DHT22;9177;49.156;8.142;2023-09-07T14:42:36;28.80;98.50
18101;DHT22;9177;49.156;8.142;2023-09-07T14:45:04;29.00;98.20
18101;DHT22;9177;49.156;8.142;2023-09-07T14:47:31;29.10;98.40
18101;DHT22;9177;49.156;8.142;2023-09-07T14:49:58;29.10;98.10
18101;DHT22;9177;49.156;8.142;2023-09-07T14:52:24;29.20;98.10
18101;DHT22;9177;49.156;8.142;2023-09-07T14:54:53;29.40;98.00
18101;DHT22;9177;49.156;8.142;2023-09-07T14:57:21;29.40;97.90
18101;DHT22;9177;49.156;8.142;2023-09-07T14:59:48;29.40;98.00
18101;DHT22;9177;49.156;8.142;2023-09-07T15:02:15;29.30;98.10
18101;DHT22;9177;49.156;8.142;2023-09-07T15:04:41;29.20;98.10
18101;DHT22;9177;49.156;8.142;2023-09-07T15:07:10;29.00;98.80
18101;DHT22;9177;49.156;8.142;2023-09-07T15:09:37;29.20;98.30
18101;DHT22;9177;49.156;8.142;2023-09-07T15:12:05;29.30;98.30
18101;DHT22;9177;49.156;8.142;2023-09-07T15:14:33;29.30;98.10
18101;DHT22;9177;49.156;8.142;2023-09-07T15:17:00;29.10;98.50
18101;DHT22;9177;49.156;8.142;2023-09-07T15:19:27;29.20;98.40
18101;DHT22;9177;49.156;8.142;2023-09-07T15:21:57;29.20;98.30
18101;DHT22;9177;49.156;8.142;2023-09-07T15:24:24;29.20;98.40
18101;DHT22;9177;49.156;8.142;2023-09-07T15:26:50;29.30;98.30
18101;DHT22;9177;49.156;8.142;2023-09-07T15:29:17;29.30;98.30
18101;DHT22;9177;49.156;8.142;2023-09-07T15:31:46;29.20;98.50
18101;DHT22;9177;49.156;8.142;2023-09-07T15:34:12;29.10;98.70
18101;DHT22;9177;49.156;8.142;2023-09-07T15:36:40;29.10;98.70
18101;DHT22;9177;49.156;8.142;2023-09-07T15:39:08;29.00;98.90
18101;DHT22;9177;49.156;8.142;2023-09-07T15:41:35;28.80;99.00
18101;DHT22;9177;49.156;8.142;2023-09-07T15:44:01;28.70;99.30
18101;DHT22;9177;49.156;8.142;2023-09-07T15:46:31;28.70;99.30
18101;DHT22;9177;49.156;8.142;2023-09-07T15:48:59;28.70;99.40